sensor_id;sensor_type;location;lat;lon;timestamp;temperature;humidity
975;DHT22;6115;49.296;10.602;2022-08-23T00:02:22;15.40;66.60
975;DHT22;6115;49.296;10.602;2022-08-23T00:07:23;15.40;66.40
975;DHT22;6115;49.296;10.602;2022-08-23T00:12:23;15.20;67.00
975;DHT22;6115;49.296;10.602;2022-08-23T00:17:24;15.10;67.50
975;DHT22;6115;49.296;10.602;2022-08-23T00:22:25;15.10;67.70
975;DHT22;6115;49.296;10.602;2022-08-23T00:27:26;15.00;67.50
975;DHT22;6115;49.296;10.602;2022-08-23T00:32:29;15.00;67.40
975;DHT22;6115;49.296;10.602;2022-08-23T00:37:31;14.80;68.00
975;DHT22;6115;49.296;10.602;2022-08-23T00:48:00;14.60;68.90
975;DHT22;6115;49.296;10.602;2022-08-23T00:53:07;14.60;69.60
975;DHT22;6115;49.296;10.602;2022-08-23T00:58:13;14.70;68.90
975;DHT22;6115;49.296;10.602;2022-08-23T01:03:17;14.60;68.80
975;DHT22;6115;49.296;10.602;2022-08-23T01:08:20;14.60;68.80
975;DHT22;6115;49.296;10.602;2022-08-23T01:13:38;14.50;69.30
975;DHT22;6115;49.296;10.602;2022-08-23T01:18:40;14.40;69.70
975;DHT22;6115;49.296;10.602;2022-08-23T01:23:44;14.50;69.70
975;DHT22;6115;49.296;10.602;2022-08-23T01:28:45;14.30;70.30
975;DHT22;6115;49.296;10.602;2022-08-23T01:33:50;14.10;70.80
975;DHT22;6115;49.296;10.602;2022-08-23T01:38:52;14.00;71.30
975;DHT22;6115;49.296;10.602;2022-08-23T01:43:53;13.90;71.40
975;DHT22;6115;49.296;10.602;2022-08-23T01:48:53;14.00;71.30
975;DHT22;6115;49.296;10.602;2022-08-23T01:53:54;14.00;71.20
975;DHT22;6115;49.296;10.602;2022-08-23T01:58:55;14.00;71.00
975;DHT22;6115;49.296;10.602;2022-08-23T02:03:55;14.00;70.80
975;DHT22;6115;49.296;10.602;2022-08-23T02:08:56;13.90;71.20
975;DHT22;6115;49.296;10.602;2022-08-23T02:14:10;13.60;72.70
975;DHT22;6115;49.296;10.602;2022-08-23T02:19:13;13.60;72.70
975;DHT22;6115;49.296;10.602;2022-08-23T02:24:17;13.60;72.70
975;DHT22;6115;49.296;10.602;2022-08-23T02:29:20;13.60;72.70
975;DHT22;6115;49.296;10.602;2022-08-23T02:34:21;13.70;72.80
975;DHT22;6115;49.296;10.602;2022-08-23T02:39:21;13.60;72.40
975;DHT22;6115;49.296;10.602;2022-08-23T02:44:22;13.60;72.70
975;DHT22;6115;49.296;10.602;2022-08-23T02:49:23;13.60;72.70
975;DHT22;6115;49.296;10.602;2022-08-23T02:54:24;13.50;73.30
975;DHT22;6115;49.296;10.602;2022-08-23T02:59:25;13.40;73.20
975;DHT22;6115;49.296;10.602;2022-08-23T03:04:26;13.30;72.40
975;DHT22;6115;49.296;10.602;2022-08-23T03:09:26;13.30;72.40
975;DHT22;6115;49.296;10.602;2022-08-23T03:14:27;13.30;72.40
975;DHT22;6115;49.296;10.602;2022-08-23T03:19:27;13.10;73.10
975;DHT22;6115;49.296;10.602;2022-08-23T03:24:28;13.00;73.50
975;DHT22;6115;49.296;10.602;2022-08-23T03:29:29;12.90;73.70
975;DHT22;6115;49.296;10.602;2022-08-23T03:34:34;12.80;73.70
975;DHT22;6115;49.296;10.602;2022-08-23T03:39:34;12.70;73.80
975;DHT22;6115;49.296;10.602;2022-08-23T03:44:35;12.70;74.10
975;DHT22;6115;49.296;10.602;2022-08-23T03:49:36;12.60;74.50
975;DHT22;6115;49.296;10.602;2022-08-23T03:54:37;12.60;75.20
975;DHT22;6115;49.296;10.602;2022-08-23T03:59:39;12.50;75.50
975;DHT22;6115;49.296;10.602;2022-08-23T04:04:41;12.50;75.60
975;DHT22;6115;49.296;10.602;2022-08-23T04:09:41;12.50;76.40
975;DHT22;6115;49.296;10.602;2022-08-23T04:14:42;12.40;76.40
975;DHT22;6115;49.296;10.602;2022-08-23T04:19:44;12.50;76.40
975;DHT22;6115;49.296;10.602;2022-08-23T04:24:45;12.50;76.10
975;DHT22;6115;49.296;10.602;2022-08-23T04:29:46;12.60;75.60
975;DHT22;6115;49.296;10.602;2022-08-23T04:34:46;12.50;75.30
975;DHT22;6115;49.296;10.602;2022-08-23T04:39:48;12.40;75.30
975;DHT22;6115;49.296;10.602;2022-08-23T04:45:08;12.50;75.20
975;DHT22;6115;49.296;10.602;2022-08-23T04:50:08;12.50;74.50
975;DHT22;6115;49.296;10.602;2022-08-23T04:55:09;12.60;74.40
975;DHT22;6115;49.296;10.602;2022-08-23T05:00:12;12.60;74.40
975;DHT22;6115;49.296;10.602;2022-08-23T05:05:13;12.60;74.40
975;DHT22;6115;49.296;10.602;2022-08-23T05:10:15;12.60;74.70
975;DHT22;6115;49.296;10.602;2022-08-23T05:15:16;12.60;75.80
975;DHT22;6115;49.296;10.602;2022-08-23T05:20:17;12.70;75.00
975;DHT22;6115;49.296;10.602;2022-08-23T05:25:18;12.70;74.80
975;DHT22;6115;49.296;10.602;2022-08-23T05:30:19;12.80;75.00
975;DHT22;6115;49.296;10.602;2022-08-23T05:35:19;12.90;75.20
975;DHT22;6115;49.296;10.602;2022-08-23T05:40:20;12.90;75.50
975;DHT22;6115;49.296;10.602;2022-08-23T05:45:20;13.00;75.70
975;DHT22;6115;49.296;10.602;2022-08-23T05:50:21;13.00;75.60
975;DHT22;6115;49.296;10.602;2022-08-23T05:55:21;13.10;75.30
975;DHT22;6115;49.296;10.602;2022-08-23T06:00:23;13.30;75.30
975;DHT22;6115;49.296;10.602;2022-08-23T06:05:24;13.50;75.10
975;DHT22;6115;49.296;10.602;2022-08-23T06:10:28;13.60;75.00
975;DHT22;6115;49.296;10.602;2022-08-23T06:15:29;13.80;75.20
975;DHT22;6115;49.296;10.602;2022-08-23T06:20:30;14.00;74.80
975;DHT22;6115;49.296;10.602;2022-08-23T06:25:31;14.10;74.60
975;DHT22;6115;49.296;10.602;2022-08-23T06:30:37;14.30;74.80
975;DHT22;6115;49.296;10.602;2022-08-23T06:35:38;14.50;75.10
975;DHT22;6115;49.296;10.602;2022-08-23T06:40:38;14.70;74.50
975;DHT22;6115;49.296;10.602;2022-08-23T06:45:39;14.90;74.00
975;DHT22;6115;49.296;10.602;2022-08-23T06:50:40;15.20;74.00
975;DHT22;6115;49.296;10.602;2022-08-23T06:55:41;15.40;73.00
975;DHT22;6115;49.296;10.602;2022-08-23T07:00:41;15.70;72.50
975;DHT22;6115;49.296;10.602;2022-08-23T07:05:42;16.00;71.30
975;DHT22;6115;49.296;10.602;2022-08-23T07:10:43;16.30;70.50
975;DHT22;6115;49.296;10.602;2022-08-23T07:15:43;16.50;70.30
975;DHT22;6115;49.296;10.602;2022-08-23T07:20:44;16.80;69.30
975;DHT22;6115;49.296;10.602;2022-08-23T07:25:45;17.10;68.60
975;DHT22;6115;49.296;10.602;2022-08-23T07:30:45;17.40;67.40
975;DHT22;6115;49.296;10.602;2022-08-23T07:35:47;17.70;66.80
975;DHT22;6115;49.296;10.602;2022-08-23T07:40:48;18.00;64.80
975;DHT22;6115;49.296;10.602;2022-08-23T07:45:49;18.20;63.40
975;DHT22;6115;49.296;10.602;2022-08-23T07:50:55;18.50;60.90
975;DHT22;6115;49.296;10.602;2022-08-23T07:55:57;18.80;59.70
975;DHT22;6115;49.296;10.602;2022-08-23T08:01:08;19.10;58.30
975;DHT22;6115;49.296;10.602;2022-08-23T08:06:17;19.30;56.70
975;DHT22;6115;49.296;10.602;2022-08-23T08:11:21;19.60;55.40
975;DHT22;6115;49.296;10.602;2022-08-23T08:16:32;19.80;55.30
975;DHT22;6115;49.296;10.602;2022-08-23T08:21:37;20.10;53.90
975;DHT22;6115;49.296;10.602;2022-08-23T08:26:40;20.40;52.20
975;DHT22;6115;49.296;10.602;2022-08-23T08:31:42;20.60;50.50
975;DHT22;6115;49.296;10.602;2022-08-23T08:36:48;20.90;50.20
975;DHT22;6115;49.296;10.602;2022-08-23T08:47:20;21.50;46.60
975;DHT22;6115;49.296;10.602;2022-08-23T08:52:28;21.70;47.30
975;DHT22;6115;49.296;10.602;2022-08-23T08:57:36;22.00;47.20
975;DHT22;6115;49.296;10.602;2022-08-23T09:02:37;22.20;47.30
975;DHT22;6115;49.296;10.602;2022-08-23T09:13:35;22.40;45.80
975;DHT22;6115;49.296;10.602;2022-08-23T09:18:41;22.70;45.30
975;DHT22;6115;49.296;10.602;2022-08-23T09:23:45;23.20;45.40
975;DHT22;6115;49.296;10.602;2022-08-23T09:28:52;23.60;45.40
975;DHT22;6115;49.296;10.602;2022-08-23T09:33:53;23.90;43.00
975;DHT22;6115;49.296;10.602;2022-08-23T09:38:57;24.30;44.30
975;DHT22;6115;49.296;10.602;2022-08-23T09:43:58;24.50;42.50
975;DHT22;6115;49.296;10.602;2022-08-23T09:49:22;25.00;40.70
975;DHT22;6115;49.296;10.602;2022-08-23T09:54:32;25.30;38.90
975;DHT22;6115;49.296;10.602;2022-08-23T09:59:45;25.60;39.00
975;DHT22;6115;49.296;10.602;2022-08-23T10:05:04;25.70;37.40
975;DHT22;6115;49.296;10.602;2022-08-23T10:10:31;26.10;37.50
975;DHT22;6115;49.296;10.602;2022-08-23T10:15:44;26.40;38.10
975;DHT22;6115;49.296;10.602;2022-08-23T10:21:16;26.70;37.20
975;DHT22;6115;49.296;10.602;2022-08-23T10:26:25;26.90;35.30
975;DHT22;6115;49.296;10.602;2022-08-23T10:42:10;27.50;32.90
975;DHT22;6115;49.296;10.602;2022-08-23T10:48:25;27.60;32.50
975;DHT22;6115;49.296;10.602;2022-08-23T10:53:12;27.60;32.80
975;DHT22;6115;49.296;10.602;2022-08-23T10:58:18;27.70;32.70
975;DHT22;6115;49.296;10.602;2022-08-23T11:03:43;27.70;32.60
975;DHT22;6115;49.296;10.602;2022-08-23T11:08:46;28.00;32.30
975;DHT22;6115;49.296;10.602;2022-08-23T11:13:51;28.00;32.30
975;DHT22;6115;49.296;10.602;2022-08-23T11:18:52;27.80;31.70
975;DHT22;6115;49.296;10.602;2022-08-23T11:23:54;28.00;32.20
975;DHT22;6115;49.296;10.602;2022-08-23T11:44:58;28.80;28.40
975;DHT22;6115;49.296;10.602;2022-08-23T11:50:24;28.90;28.70
975;DHT22;6115;49.296;10.602;2022-08-23T12:06:03;29.10;28.60
975;DHT22;6115;49.296;10.602;2022-08-23T12:11:08;29.00;26.90
975;DHT22;6115;49.296;10.602;2022-08-23T12:26:29;29.10;28.10
975;DHT22;6115;49.296;10.602;2022-08-23T12:42:31;29.90;26.00
975;DHT22;6115;49.296;10.602;2022-08-23T12:47:33;30.10;25.90
975;DHT22;6115;49.296;10.602;2022-08-23T12:52:35;30.20;25.20
975;DHT22;6115;49.296;10.602;2022-08-23T12:57:39;29.90;26.80
975;DHT22;6115;49.296;10.602;2022-08-23T13:02:46;30.00;25.00
975;DHT22;6115;49.296;10.602;2022-08-23T13:07:48;30.00;25.60
975;DHT22;6115;49.296;10.602;2022-08-23T13:12:50;30.20;25.40
975;DHT22;6115;49.296;10.602;2022-08-23T13:17:59;30.00;26.00
975;DHT22;6115;49.296;10.602;2022-08-23T13:23:07;30.10;25.30
975;DHT22;6115;49.296;10.602;2022-08-23T13:28:24;30.30;24.70
975;DHT22;6115;49.296;10.602;2022-08-23T13:33:25;30.80;23.70
975;DHT22;6115;49.296;10.602;2022-08-23T13:38:30;31.30;23.90
975;DHT22;6115;49.296;10.602;2022-08-23T13:48:47;31.80;22.60
975;DHT22;6115;49.296;10.602;2022-08-23T13:53:49;32.30;22.30
975;DHT22;6115;49.296;10.602;2022-08-23T14:04:16;33.60;20.70
975;DHT22;6115;49.296;10.602;2022-08-23T14:09:17;33.90;22.00
975;DHT22;6115;49.296;10.602;2022-08-23T14:14:18;34.10;20.50
975;DHT22;6115;49.296;10.602;2022-08-23T14:19:19;34.80;20.30
975;DHT22;6115;49.296;10.602;2022-08-23T14:24:19;34.60;20.40
975;DHT22;6115;49.296;10.602;2022-08-23T14:29:21;35.00;19.50
975;DHT22;6115;49.296;10.602;2022-08-23T14:34:23;36.00;18.80
975;DHT22;6115;49.296;10.602;2022-08-23T14:39:24;35.70;19.00
975;DHT22;6115;49.296;10.602;2022-08-23T14:44:25;35.90;18.10
975;DHT22;6115;49.296;10.602;2022-08-23T14:49:25;35.80;18.30
975;DHT22;6115;49.296;10.602;2022-08-23T14:54:26;36.00;18.20
975;DHT22;6115;49.296;10.602;2022-08-23T14:59:27;35.40;18.70
975;DHT22;6115;49.296;10.602;2022-08-23T15:04:27;35.90;18.20
975;DHT22;6115;49.296;10.602;2022-08-23T15:09:28;35.40;18.90
975;DHT22;6115;49.296;10.602;2022-08-23T15:14:29;35.30;18.40
975;DHT22;6115;49.296;10.602;2022-08-23T15:19:29;34.30;18.90
975;DHT22;6115;49.296;10.602;2022-08-23T15:24:30;33.10;20.00
975;DHT22;6115;49.296;10.602;2022-08-23T15:29:32;33.30;20.10
975;DHT22;6115;49.296;10.602;2022-08-23T15:34:32;33.50;18.90
975;DHT22;6115;49.296;10.602;2022-08-23T15:39:33;33.30;19.20
975;DHT22;6115;49.296;10.602;2022-08-23T15:44:33;32.30;20.10
975;DHT22;6115;49.296;10.602;2022-08-23T15:49:34;31.60;20.50
975;DHT22;6115;49.296;10.602;2022-08-23T15:54:34;30.90;21.60
975;DHT22;6115;49.296;10.602;2022-08-23T15:59:35;30.40;22.30
975;DHT22;6115;49.296;10.602;2022-08-23T16:04:37;30.30;22.30
975;DHT22;6115;49.296;10.602;2022-08-23T16:09:38;30.60;22.60
975;DHT22;6115;49.296;10.602;2022-08-23T16:14:38;30.50;22.00
975;DHT22;6115;49.296;10.602;2022-08-23T16:19:39;30.50;22.40
975;DHT22;6115;49.296;10.602;2022-08-23T16:24:39;30.00;22.30
975;DHT22;6115;49.296;10.602;2022-08-23T16:29:40;29.40;23.70
975;DHT22;6115;49.296;10.602;2022-08-23T16:34:40;29.30;23.70
975;DHT22;6115;49.296;10.602;2022-08-23T16:39:41;29.10;24.50
975;DHT22;6115;49.296;10.602;2022-08-23T16:44:44;28.50;24.90
975;DHT22;6115;49.296;10.602;2022-08-23T16:49:44;28.20;25.80
975;DHT22;6115;49.296;10.602;2022-08-23T16:54:45;28.10;25.50
975;DHT22;6115;49.296;10.602;2022-08-23T16:59:46;27.60;26.00
975;DHT22;6115;49.296;10.602;2022-08-23T17:04:46;27.30;26.40
975;DHT22;6115;49.296;10.602;2022-08-23T17:09:47;27.10;27.00
975;DHT22;6115;49.296;10.602;2022-08-23T17:14:47;26.80;27.40
975;DHT22;6115;49.296;10.602;2022-08-23T17:19:50;26.60;27.50
975;DHT22;6115;49.296;10.602;2022-08-23T17:24:50;26.40;27.90
975;DHT22;6115;49.296;10.602;2022-08-23T17:29:51;26.00;28.70
975;DHT22;6115;49.296;10.602;2022-08-23T17:34:51;25.90;29.50
975;DHT22;6115;49.296;10.602;2022-08-23T17:39:52;25.70;29.70
975;DHT22;6115;49.296;10.602;2022-08-23T17:44:52;25.70;30.10
975;DHT22;6115;49.296;10.602;2022-08-23T17:49:53;25.80;30.90
975;DHT22;6115;49.296;10.602;2022-08-23T17:54:54;25.80;31.40
975;DHT22;6115;49.296;10.602;2022-08-23T17:59:55;25.80;32.60
975;DHT22;6115;49.296;10.602;2022-08-23T18:04:56;25.60;32.60
975;DHT22;6115;49.296;10.602;2022-08-23T18:09:56;25.50;32.90
975;DHT22;6115;49.296;10.602;2022-08-23T18:14:57;25.30;34.20
975;DHT22;6115;49.296;10.602;2022-08-23T18:20:04;25.00;35.30
975;DHT22;6115;49.296;10.602;2022-08-23T18:25:06;24.60;35.90
975;DHT22;6115;49.296;10.602;2022-08-23T18:30:09;24.20;36.20
975;DHT22;6115;49.296;10.602;2022-08-23T18:35:09;23.90;36.90
975;DHT22;6115;49.296;10.602;2022-08-23T18:40:10;23.60;38.20
975;DHT22;6115;49.296;10.602;2022-08-23T18:45:12;23.50;38.30
975;DHT22;6115;49.296;10.602;2022-08-23T18:50:14;23.30;39.70
975;DHT22;6115;49.296;10.602;2022-08-23T18:55:15;22.80;40.30
975;DHT22;6115;49.296;10.602;2022-08-23T19:00:16;22.70;40.20
975;DHT22;6115;49.296;10.602;2022-08-23T19:05:17;22.40;41.20
975;DHT22;6115;49.296;10.602;2022-08-23T19:10:19;22.10;42.50
975;DHT22;6115;49.296;10.602;2022-08-23T19:15:20;22.00;42.40
975;DHT22;6115;49.296;10.602;2022-08-23T19:20:21;21.90;42.30
975;DHT22;6115;49.296;10.602;2022-08-23T19:25:23;21.70;44.50
975;DHT22;6115;49.296;10.602;2022-08-23T19:30:23;21.30;44.90
975;DHT22;6115;49.296;10.602;2022-08-23T19:35:24;21.30;45.70
975;DHT22;6115;49.296;10.602;2022-08-23T19:40:25;21.20;46.40
975;DHT22;6115;49.296;10.602;2022-08-23T19:45:25;20.80;45.70
975;DHT22;6115;49.296;10.602;2022-08-23T19:50:26;20.40;46.70
975;DHT22;6115;49.296;10.602;2022-08-23T19:55:27;20.30;47.20
975;DHT22;6115;49.296;10.602;2022-08-23T20:00:28;20.30;48.40
975;DHT22;6115;49.296;10.602;2022-08-23T20:05:30;20.10;48.60
975;DHT22;6115;49.296;10.602;2022-08-23T20:10:32;19.90;49.90
975;DHT22;6115;49.296;10.602;2022-08-23T20:15:33;19.70;49.80
975;DHT22;6115;49.296;10.602;2022-08-23T20:20:33;19.60;49.70
975;DHT22;6115;49.296;10.602;2022-08-23T20:25:34;19.60;50.00
975;DHT22;6115;49.296;10.602;2022-08-23T20:30:35;19.40;51.50
975;DHT22;6115;49.296;10.602;2022-08-23T20:35:37;19.20;51.70
975;DHT22;6115;49.296;10.602;2022-08-23T20:40:38;19.10;52.60
975;DHT22;6115;49.296;10.602;2022-08-23T20:45:38;19.00;52.80
975;DHT22;6115;49.296;10.602;2022-08-23T20:50:39;18.90;53.20
975;DHT22;6115;49.296;10.602;2022-08-23T20:55:40;18.80;53.50
975;DHT22;6115;49.296;10.602;2022-08-23T21:00:40;18.80;53.50
975;DHT22;6115;49.296;10.602;2022-08-23T21:05:41;18.70;54.00
975;DHT22;6115;49.296;10.602;2022-08-23T21:10:41;18.60;54.00
975;DHT22;6115;49.296;10.602;2022-08-23T21:15:42;18.60;54.50
975;DHT22;6115;49.296;10.602;2022-08-23T21:20:43;18.50;55.40
975;DHT22;6115;49.296;10.602;2022-08-23T21:25:43;18.30;55.90
975;DHT22;6115;49.296;10.602;2022-08-23T21:30:44;18.20;56.30
975;DHT22;6115;49.296;10.602;2022-08-23T21:35:44;18.00;55.90
975;DHT22;6115;49.296;10.602;2022-08-23T21:40:45;17.70;57.10
975;DHT22;6115;49.296;10.602;2022-08-23T21:45:53;17.60;57.00
975;DHT22;6115;49.296;10.602;2022-08-23T21:50:53;17.40;57.70
975;DHT22;6115;49.296;10.602;2022-08-23T21:55:54;17.50;57.90
975;DHT22;6115;49.296;10.602;2022-08-23T22:00:54;17.60;57.60
975;DHT22;6115;49.296;10.602;2022-08-23T22:05:55;17.50;57.70
975;DHT22;6115;49.296;10.602;2022-08-23T22:10:56;17.40;58.20
975;DHT22;6115;49.296;10.602;2022-08-23T22:15:57;17.20;58.80
975;DHT22;6115;49.296;10.602;2022-08-23T22:21:00;17.00;59.40
975;DHT22;6115;49.296;10.602;2022-08-23T22:26:04;16.90;60.00
975;DHT22;6115;49.296;10.602;2022-08-23T22:31:06;16.90;60.20
975;DHT22;6115;49.296;10.602;2022-08-23T22:36:11;16.80;60.80
975;DHT22;6115;49.296;10.602;2022-08-23T22:41:21;16.60;60.70
975;DHT22;6115;49.296;10.602;2022-08-23T22:46:28;16.50;61.00
975;DHT22;6115;49.296;10.602;2022-08-23T22:51:31;16.50;61.80
975;DHT22;6115;49.296;10.602;2022-08-23T22:56:39;16.30;62.40
975;DHT22;6115;49.296;10.602;2022-08-23T23:01:44;16.20;62.40
975;DHT22;6115;49.296;10.602;2022-08-23T23:06:44;16.30;62.50
975;DHT22;6115;49.296;10.602;2022-08-23T23:11:46;16.30;62.70
975;DHT22;6115;49.296;10.602;2022-08-23T23:16:47;16.20;63.30
975;DHT22;6115;49.296;10.602;2022-08-23T23:21:54;16.20;63.30
975;DHT22;6115;49.296;10.602;2022-08-23T23:26:56;16.30;63.40
975;DHT22;6115;49.296;10.602;2022-08-23T23:31:57;16.30;63.30
975;DHT22;6115;49.296;10.602;2022-08-23T23:36:58;16.20;63.50
975;DHT22;6115;49.296;10.602;2022-08-23T23:41:59;16.20;63.50
975;DHT22;6115;49.296;10.602;2022-08-23T23:47:00;16.20;63.60
975;DHT22;6115;49.296;10.602;2022-08-23T23:52:02;16.20;64.00
975;DHT22;6115;49.296;10.602;2022-08-23T23:57:05;16.10;64.20
